Terminal Aerodrome Forecast
Issued by NWS La Crosse, WI

Home | Current Version | Previous Version | Text Only | Print | Product List | Glossary On
Versions: 1 2 3 4 5 6 7 8 9 10 11 12 13 14 15 16 17 18 19 20 21 22 23 24 25 26 27 28 29 30 31
000
FTUS43 KARX 240522
TAFLSE
TAF
KLSE 240522Z 2406/2506 16007KT 6SM SHRA VCTS SCT030 OVC070CB
      TEMPO 2406/2407 5SM SHRA BR BKN040
     FM240900 17007KT P6SM VCSH OVC028
     FM241200 20006KT P6SM SCT009 OVC018
     FM241700 23007KT P6SM BKN035
     FM242000 27010KT P6SM SCT040
     FM250000 27004KT P6SM SCT220=

USA.gov is the U.S. government's official web portal to all federal, state and local government web resources and services.